Nearby METAR Reports

 

KPAO - Palo Alto, California, USA
Distance from KPAO: NNW 0nm, 0mi
Updated: Thu, 13-May-2021 6:47am PDT
Overcast
Overcast
 Wind from varies
Wind: varies 5 mph , 7 km/h
Temperature: 55°F , 13°C
Dew Point: 50°F , 10°C
Humidity: 82%
Barometer: 30.05 inHg , 1017.6 hPa
Clouds: Overcast
Visibility: 10 miles , 16 km
Cloud details: Overcast 1100 ft
2021/05/13 13:47 KPAO 131347Z VRB04KT 10SM OVC011 13/10 A3005
KSQL - San Carlos Airpo, California, USA
Distance from KPAO: WNW 7nm, 8mi
Updated: Thu, 13-May-2021 6:55am PDT
Overcast
Overcast
 Wind from NW
Wind: NW 5 mph , 7 km/h
Temperature: 54°F , 12°C
Dew Point: 48°F , 9°C
Humidity: 82%
Barometer: 30.06 inHg , 1017.9 hPa
Clouds: Overcast
Visibility: 10 miles , 16 km
Cloud details: Overcast 1200 ft
2021/05/13 13:55 KSQL 131355Z AUTO 31004KT 10SM OVC012 12/09 A3006 RMK AO2
 
KSJC - San Jose, California, USA
Distance from KPAO: ESE 11nm, 13mi
Updated: Thu, 13-May-2021 6:53am PDT
Overcast
Overcast
 Wind from SSE
Wind: SSE 7 mph , 11 km/h
Temperature: 54°F , 12°C
Dew Point: 48°F , 9°C
Humidity: 82%
Barometer: 30.05 inHg , 1017.6 hPa
Clouds: Overcast
Visibility: 7 miles , 11 km
Cloud details: Few Clouds 400 ft
Broken 1000 ft
Overcast 1300 ft
2021/05/13 13:53 KSJC 131353Z 15006KT 7SM FEW004 BKN010 OVC013 12/09 A3005 RMK AO2 SLP174 T01170089
KHWD - Hayward, California, USA
Distance from KPAO: N 12nm, 14mi
Updated: Thu, 13-May-2021 6:54am PDT
Overcast
Overcast
 Wind from NW
Wind: NW 7 mph , 11 km/h
Temperature: 54°F , 12°C
Dew Point: 48°F , 9°C
Humidity: 82%
Barometer: 30.05 inHg , 1017.6 hPa
Clouds: Overcast
Visibility: 10 miles , 16 km
Cloud details: Overcast 900 ft
2021/05/13 13:54 KHWD 131354Z 32006KT 10SM OVC009 12/09 A3005 RMK AO2 SLP184 T01170094
 
KSFO - San Francisco, California, USA
Distance from KPAO: NW 16nm, 18mi
Updated: Thu, 13-May-2021 6:56am PDT
Overcast
Overcast
 Wind from WNW
Wind: WNW 8 mph , 13 km/h
Temperature: 52°F , 11°C
Dew Point: 46°F , 8°C
Humidity: 82%
Barometer: 30.05 inHg , 1017.6 hPa
Clouds: Overcast
Visibility: 9 miles , 14 km
Cloud details: Few Clouds 600 ft
Overcast 1200 ft
2021/05/13 13:56 KSFO 131356Z 29007KT 9SM FEW006 OVC012 11/08 A3005 RMK AO2 SLP175 T01110083 $
KRHV - San Jose/Reid, California, USA
Distance from KPAO: ESE 16nm, 18mi
Updated: Thu, 13-May-2021 6:47am PDT
Overcast
Overcast
 Wind from varies
Wind: varies 5 mph , 7 km/h
Temperature: 52°F , 11°C
Dew Point: 48°F , 9°C
Humidity: 88%
Barometer: 30.06 inHg , 1017.9 hPa
Clouds: Overcast
Visibility: 8 miles , 13 km
Cloud details: Overcast 1000 ft
2021/05/13 13:47 KRHV 131347Z VRB04KT 8SM OVC010 11/09 A3006
 
KOAK - Oakland, California, USA
Distance from KPAO: NNW 16nm, 18mi
Updated: Thu, 13-May-2021 6:53am PDT
Overcast
Overcast
 Wind from WNW
Wind: WNW 6 mph , 9 km/h
Temperature: 52°F , 11°C
Dew Point: 48°F , 9°C
Humidity: 88%
Barometer: 30.06 inHg , 1017.9 hPa
Clouds: Overcast
Visibility: 10 miles , 16 km
Cloud details: Overcast 700 ft
2021/05/13 13:53 KOAK 131353Z 30005KT 10SM OVC007 11/09 A3006 RMK AO2 SLP177 T01110089
KHAF - Half Moon Bay, California, USA
Distance from KPAO: W 19nm, 22mi
Updated: Thu, 13-May-2021 6:55am PDT
Mist, Overcast
Mist, Overcast
 Wind from WSW
Wind: WSW 5 mph , 7 km/h
Temperature: 48°F , 9°C
Wind Chill: 46°F , 8°C
Dew Point: 46°F , 8°C
Humidity: 94%
Barometer: 30.07 inHg , 1018.3 hPa
Summary: Mist
Clouds: Overcast
Visibility: 3 miles , 5 km
Cloud details: Overcast 400 ft
2021/05/13 13:55 KHAF 131355Z AUTO 24004KT 3SM BR OVC004 09/08 A3007 RMK AO2
 
KLVK - Livermore, California, USA
Distance from KPAO: NE 20nm, 23mi
Updated: Thu, 13-May-2021 6:53am PDT
Overcast
Overcast
 Wind from WNW
Wind: WNW 6 mph , 9 km/h
Temperature: 54°F , 12°C
Dew Point: 48°F , 9°C
Humidity: 82%
Barometer: 30.03 inHg , 1016.9 hPa
Clouds: Overcast
Visibility: 8 miles , 13 km
Cloud details: Overcast 800 ft
2021/05/13 13:53 KLVK 131353Z 30005KT 8SM OVC008 12/09 A3003 RMK AO2 SLP167 T01170089
KC83 - Byron, California, USA
Distance from KPAO: NE 32nm, 40mi
Updated: Thu, 13-May-2021 6:55am PDT
Clear
Clear
 Wind from NNE
Wind: NNE 3 mph , 6 km/h
Temperature: 55°F , 13°C
Dew Point: 50°F , 10°C
Humidity: 82%
Barometer: 29.99 inHg , 1015.6 hPa
Clouds: Clear
Visibility: 9 miles , 14 km
2021/05/13 13:55 KC83 131355Z AUTO 03003KT 9SM CLR 13/10 A2999 RMK AO2
 
KCCR - Concord, California, USA
Distance from KPAO: N 33nm, 37mi
Updated: Thu, 13-May-2021 6:53am PDT
Clear
Clear
 Wind from W
Wind: W 8 mph , 13 km/h
Temperature: 52°F , 11°C
Dew Point: 45°F , 7°C
Humidity: 77%
Barometer: 30.03 inHg , 1016.9 hPa
Clouds: Clear
Visibility: 10 miles , 16 km
2021/05/13 13:53 KCCR 131353Z 26007KT 10SM CLR 11/07 A3003 RMK AO2 SLP154 T01110072
KWVI - Watsonville, California, USA
Distance from KPAO: SSE 35nm, 40mi
Updated: Thu, 13-May-2021 7:02am PDT
Mist, Overcast
Mist, Overcast
 Wind from SW
Wind: SW 3 mph , 6 km/h
Temperature: 50°F , 10°C
Dew Point: 48°F , 9°C
Humidity: 94%
Barometer: 30.07 inHg , 1018.3 hPa
Summary: Mist
Clouds: Overcast
Visibility: 3 miles , 5 km
Cloud details: Overcast 400 ft
2021/05/13 14:02 KWVI 131402Z AUTO 23003KT 3SM BR OVC004 10/09 A3007 RMK AO2 T01000094
 
KAPC - Napa, California, USA
Distance from KPAO: N 46nm, 53mi
Updated: Thu, 13-May-2021 6:54am PDT
Overcast
Overcast
 Wind from WNW
Wind: WNW 9 mph , 15 km/h
Temperature: 48°F , 9°C
Wind Chill: 44°F , 7°C
Dew Point: 46°F , 8°C
Humidity: 94%
Barometer: 30.04 inHg , 1017.3 hPa
Clouds: Overcast
Visibility: 10 miles , 16 km
Cloud details: Overcast 500 ft
2021/05/13 13:54 KAPC 131354Z 30008KT 10SM OVC005 09/08 A3004 RMK AO2 SLP165 T00940078
KDVO - Novato/Gnoss Fld, California, USA
Distance from KPAO: NNW 46nm, 53mi
Updated: Thu, 13-May-2021 6:55am PDT
Overcast
Overcast
 Wind from N
Wind: N 5 mph , 7 km/h
Temperature: 50°F , 10°C
Wind Chill: 48°F , 9°C
Dew Point: 46°F , 8°C
Humidity: 88%
Barometer: 30.05 inHg , 1017.6 hPa
Clouds: Overcast
Visibility: 10 miles , 16 km
Cloud details: Overcast 800 ft
2021/05/13 13:55 KDVO 131355Z AUTO 35004KT 10SM OVC008 10/08 A3005 RMK AO2
 
KCVH - Hollister Muni, California, USA
Distance from KPAO: SE 48nm, 55mi
Updated: Thu, 13-May-2021 6:55am PDT
Mist, Overcast
Mist, Overcast
 Wind from calm
Wind: Calm
Temperature: 48°F , 9°C
Dew Point: 48°F , 9°C
Humidity: 100%
Barometer: 30.08 inHg , 1018.6 hPa
Summary: Mist
Clouds: Overcast
Visibility: 3 miles , 5 km
Cloud details: Overcast 200 ft
2021/05/13 13:55 KCVH 131355Z AUTO 00000KT 3SM BR OVC002 09/09 A3008 RMK A01
KSUU - Travis Afb/Fairf, California, USA
Distance from KPAO: ENE 49nm, 56mi
Updated: Thu, 13-May-2021 6:58am PDT
Clear
Clear
 Wind from SW
Wind: SW 25 mph , 41 km/h
Temperature: 50°F , 10°C
Wind Chill: 43°F , 6°C
Dew Point: 46°F , 8°C
Humidity: 88%
Barometer: 29.96 inHg , 1014.6 hPa
Clouds: Clear
Visibility: 10 miles , 16 km
2021/05/13 13:58 KSUU 131358Z AUTO 23022KT 10SM CLR 10/08 A2996 RMK AO2 PK WND 22030/35 SLP152 T01030075 $
 
KSCK - Stockton, California, USA
Distance from KPAO: ENE 49nm, 56mi
Updated: Thu, 13-May-2021 6:55am PDT
Clear
Clear
 Wind from NNW
Wind: NNW 9 mph , 15 km/h
Temperature: 54°F , 12°C
Dew Point: 48°F , 9°C
Humidity: 82%
Barometer: 29.99 inHg , 1015.6 hPa
Clouds: Clear
Visibility: 10 miles , 16 km
2021/05/13 13:55 KSCK 131355Z AUTO 34008KT 10SM CLR 12/09 A2999 RMK AO2 SLP153 T01220094
KO69 - Petaluma, California, USA
Distance from KPAO: W 53nm, 61mi
Updated: Thu, 13-May-2021 6:35am PDT
Overcast
Overcast
 Wind from NW
Wind: NW 3 mph , 6 km/h
Temperature: 48°F , 9°C
Dew Point: 46°F , 8°C
Humidity: 94%
Barometer: 30.06 inHg , 1017.9 hPa
Clouds: Overcast
Visibility: 7 miles , 11 km
Cloud details: Overcast 400 ft
2021/05/13 13:35 KO69 131335Z AUTO 32003KT 7SM OVC004 09/08 A3006 RMK A01
 
KSNS - Salinas, California, USA
Distance from KPAO: SSE 54nm, 62mi
Updated: Thu, 13-May-2021 6:53am PDT
Overcast
Overcast
 Wind from calm
Wind: Calm
Temperature: 52°F , 11°C
Dew Point: 46°F , 8°C
Humidity: 82%
Barometer: 30.07 inHg , 1018.3 hPa
Clouds: Overcast
Visibility: 8 miles , 13 km
Cloud details: Overcast 500 ft
2021/05/13 13:53 KSNS 131353Z 00000KT 8SM OVC005 11/08 A3007 RMK AO2 SLP190 T01060083
KMRY - Monterey, California, USA
Distance from KPAO: SSE 54nm, 62mi
Updated: Thu, 13-May-2021 6:54am PDT
Haze, Overcast
Haze, Overcast
 Wind from S
Wind: S 3 mph , 6 km/h
Temperature: 52°F , 11°C
Dew Point: 46°F , 8°C
Humidity: 82%
Barometer: 30.07 inHg , 1018.3 hPa
Summary: Haze
Clouds: Overcast
Visibility: 5 miles , 8 km
Cloud details: Overcast 500 ft
2021/05/13 13:54 KMRY 131354Z 18003KT 5SM HZ OVC005 11/08 A3007 RMK AO2 CIG 004V008 SLP195 T01110083
 
KVCB - Vacaville, California, USA
Distance from KPAO: NE 55nm, 63mi
Updated: Thu, 13-May-2021 6:53am PDT
Clear
Clear
 Wind from calm
Wind: Calm
Temperature: 55°F , 13°C
Dew Point: 45°F , 7°C
Humidity: 67%
Barometer: 29.97 inHg , 1014.9 hPa
Clouds: Clear
Visibility: 10 miles , 16 km
2021/05/13 13:53 KVCB 131353Z AUTO 00000KT 10SM CLR 13/07 A2997 RMK AO2 SLP148 T01280067
KMOD - Modesto, California, USA
Distance from KPAO: E 56nm, 64mi
Updated: Thu, 13-May-2021 6:53am PDT
Clear
Clear
 Wind from NNW
Wind: NNW 9 mph , 15 km/h
Temperature: 57°F , 14°C
Dew Point: 45°F , 7°C
Humidity: 63%
Barometer: 29.97 inHg , 1014.9 hPa
Clouds: Clear
Visibility: 10 miles , 16 km
2021/05/13 13:53 KMOD 131353Z 33008KT 10SM CLR 14/07 A2997 RMK AO2 SLP146 T01390067
 
KEDU - Davis, California, USA
Distance from KPAO: NE 66nm, 76mi
Updated: Thu, 13-May-2021 6:55am PDT
Clear
Clear
 Wind from calm
Wind: Calm
Temperature: 52°F , 11°C
Dew Point: 45°F , 7°C
Humidity: 77%
Barometer: 29.97 inHg , 1014.9 hPa
Clouds: Clear
Visibility: 10 miles , 16 km
2021/05/13 13:55 KEDU 131355Z AUTO 00000KT 10SM CLR 11/07 A2997 RMK AO1
KSAC - Sacramento, California, USA
Distance from KPAO: NE 70nm, 81mi
Updated: Thu, 13-May-2021 6:53am PDT
Clear
Clear
 Wind from SSW
Wind: SSW 8 mph , 13 km/h
Temperature: 54°F , 12°C
Dew Point: 46°F , 8°C
Humidity: 77%
Barometer: 29.98 inHg , 1015.2 hPa
Clouds: Clear
Visibility: 10 miles , 16 km
2021/05/13 13:53 KSAC 131353Z 20007KT 10SM CLR 12/08 A2998 RMK AO2 SLP152 T01170083
 
KSTS - Santa Rosa, California, USA
Distance from KPAO: NW 71nm, 82mi
Updated: Thu, 13-May-2021 6:53am PDT
Overcast
Overcast
 Wind from varies
Wind: varies 3 mph , 6 km/h
Temperature: 46°F , 8°C
Dew Point: 45°F , 7°C
Humidity: 93%
Barometer: 30.06 inHg , 1017.9 hPa
Clouds: Overcast
Visibility: 9 miles , 14 km
Cloud details: Overcast 400 ft
2021/05/13 13:53 KSTS 131353Z AUTO VRB03KT 9SM OVC004 08/07 A3006 RMK AO2 SLP171 T00830072
KMHR - Mather Field, California, USA
Distance from KPAO: ENE 76nm, 88mi
Updated: Thu, 13-May-2021 6:45am PDT
Sky Clear
Sky Clear
 Wind from SE
Wind: SE 6 mph , 9 km/h
Temperature: 54°F , 12°C
Dew Point: 46°F , 8°C
Humidity: 77%
Barometer: 29.98 inHg , 1015.2 hPa
Clouds: Sky Clear
Visibility: 10 miles , 16 km
2021/05/13 13:45 KMHR 131345Z 14005KT 10SM SKC 12/08 A2998
 
KSMF - Sacramento/Metro, California, USA
Distance from KPAO: NE 78nm, 90mi
Updated: Thu, 13-May-2021 6:53am PDT
Clear
Clear
 Wind from SE
Wind: SE 10 mph , 17 km/h
Temperature: 54°F , 12°C
Dew Point: 46°F , 8°C
Humidity: 77%
Barometer: 29.97 inHg , 1014.9 hPa
Clouds: Clear
Visibility: 10 miles , 16 km
2021/05/13 13:53 KSMF 131353Z 14009KT 10SM CLR 12/08 A2997 RMK AO2 SLP147 T01170078
KMCC - Mcclellan Afb, California, USA
Distance from KPAO: NE 80nm, 92mi
Updated: Thu, 13-May-2021 6:55am PDT
Clear
Clear
 Wind from SSE
Wind: SSE 9 mph , 15 km/h
Temperature: 55°F , 13°C
Dew Point: 46°F , 8°C
Humidity: 72%
Barometer: 29.98 inHg , 1015.2 hPa
Clouds: Clear
Visibility: 10 miles , 16 km
2021/05/13 13:55 KMCC 131355Z AUTO 15008KT 10SM CLR 13/08 A2998 RMK AO2
 
KNKX - Miramar MCAS (Joe Foss Field) Airport, California, USA
Distance from KPAO: SE 368nm, 423mi
Updated: Thu, 13-May-2021 6:55am PDT
Overcast
Overcast
 Wind from calm
Wind: Calm
Temperature: 63°F , 17°C
Dew Point: 57°F , 14°C
Humidity: 83%
Barometer: 30.03 inHg , 1016.9 hPa
Clouds: Overcast
Visibility: 8 miles , 13 km
Cloud details: Overcast 800 ft
2021/05/13 13:55 KNKX 131355Z 00000KT 8SM OVC008 17/14 A3003 RMK AO2 SLP163 T01670144 $
KMYF - Montgomery-Gibbs Executive Airport, California, USA
Distance from KPAO: SE 371nm, 427mi
Updated: Thu, 13-May-2021 6:53am PDT
Overcast
Overcast
 Wind from varies
Wind: varies 3 mph , 6 km/h
Temperature: 63°F , 17°C
Dew Point: 57°F , 14°C
Humidity: 83%
Barometer: 30.03 inHg , 1016.9 hPa
Clouds: Overcast
Visibility: 7 miles , 11 km
Cloud details: Overcast 800 ft
2021/05/13 13:53 KMYF 131353Z VRB03KT 7SM OVC008 17/14 A3003 RMK AO2 SLP167 T01670139